createdAt,value
2019-02-28T00:01:07.551Z,67.09
2019-02-28T00:03:13.828Z,67.04
2019-02-28T00:05:20.007Z,67.11
2019-02-28T00:07:26.160Z,66.97
2019-02-28T00:09:32.410Z,66.75
2019-02-28T00:11:39.550Z,66.65
2019-02-28T00:13:46.357Z,66.60
2019-02-28T00:15:52.443Z,66.68
2019-02-28T00:17:58.789Z,66.67
2019-02-28T00:20:07.182Z,66.77
2019-02-28T00:22:14.648Z,66.92
2019-02-28T00:24:21.151Z,67.16
2019-02-28T00:26:27.311Z,67.31
2019-02-28T00:28:33.478Z,67.40
2019-02-28T00:30:40.826Z,67.31
2019-02-28T00:32:47.939Z,67.43
2019-02-28T00:34:53.968Z,67.75
2019-02-28T00:37:00.053Z,68.10
2019-02-28T00:39:07.449Z,68.42
2019-02-28T00:41:13.815Z,68.76
2019-02-28T00:43:22.279Z,69.10
2019-02-28T00:45:27.656Z,69.44
2019-02-28T00:47:33.899Z,69.58
2019-02-28T00:49:39.960Z,69.68
2019-02-28T00:51:46.110Z,69.69
2019-02-28T00:53:52.287Z,69.80
2019-02-28T00:55:58.538Z,69.74
2019-02-28T00:58:04.597Z,69.62
2019-02-28T01:00:20.017Z,69.43
2019-02-28T01:02:26.220Z,69.20
2019-02-28T01:04:32.281Z,69.22
2019-02-28T01:06:38.349Z,69.18
2019-02-28T01:08:46.161Z,69.02
2019-02-28T01:10:52.387Z,68.72
2019-02-28T01:12:58.548Z,68.55
2019-02-28T01:15:07.159Z,68.55
2019-02-28T01:17:14.237Z,68.68
2019-02-28T01:19:20.298Z,68.88
2019-02-28T01:21:26.460Z,68.89
2019-02-28T01:23:32.519Z,68.31
2019-02-28T01:25:40.139Z,68.27
2019-02-28T01:27:46.560Z,68.22
2019-02-28T01:29:52.619Z,68.01
2019-02-28T01:31:58.746Z,68.16
2019-02-28T01:34:04.847Z,67.84
2019-02-28T01:36:12.295Z,67.92
2019-02-28T01:38:18.888Z,67.71
2019-02-28T01:40:25.249Z,67.29
2019-02-28T01:42:31.407Z,67.07
2019-02-28T01:44:37.799Z,66.92
2019-02-28T01:46:43.828Z,66.89
2019-02-28T01:48:49.992Z,66.62
2019-02-28T01:50:56.140Z,66.58
2019-02-28T01:53:02.306Z,66.62
2019-02-28T01:55:11.120Z,66.89
2019-02-28T01:57:17.291Z,66.92
2019-02-28T01:59:23.538Z,66.98
2019-02-28T02:01:31.011Z,67.04
2019-02-28T02:03:40.712Z,67.15
2019-02-28T02:05:48.267Z,67.33
2019-02-28T02:07:53.279Z,67.49
2019-02-28T02:09:59.448Z,67.52
2019-02-28T02:12:05.602Z,67.57
2019-02-28T02:14:11.903Z,67.63
2019-02-28T02:16:18.229Z,67.71
2019-02-28T02:18:24.280Z,67.77
2019-02-28T02:20:30.439Z,67.71
2019-02-28T02:22:36.498Z,67.61
2019-02-28T02:24:42.659Z,67.64
2019-02-28T02:26:48.799Z,67.71
2019-02-28T02:28:54.989Z,67.11
2019-02-28T02:31:01.129Z,66.97
2019-02-28T02:33:13.851Z,67.00
2019-02-28T02:35:15.895Z,66.22
2019-02-28T02:37:22.055Z,66.02
2019-02-28T02:39:28.319Z,65.73
2019-02-28T02:41:34.673Z,65.74
2019-02-28T02:43:41.042Z,65.78
2019-02-28T02:45:47.308Z,65.43
2019-02-28T02:47:54.249Z,65.55
2019-02-28T02:50:00.667Z,68.45
2019-02-28T02:52:06.899Z,68.66
2019-02-28T02:54:17.940Z,66.64
2019-02-28T02:56:20.960Z,68.53
2019-02-28T02:58:28.087Z,68.38
2019-02-28T03:00:34.398Z,68.46
2019-02-28T03:02:40.583Z,65.58
2019-02-28T03:04:46.721Z,64.12
2019-02-28T03:06:52.790Z,64.08
2019-02-28T03:08:59.037Z,66.25
2019-02-28T03:11:05.310Z,65.79
2019-02-28T03:13:11.549Z,66.59
2019-02-28T03:15:24.813Z,64.21
2019-02-28T03:17:26.959Z,63.33
2019-02-28T03:19:34.588Z,62.80
2019-02-28T03:21:40.903Z,62.71
2019-02-28T03:23:47.052Z,63.12
2019-02-28T03:25:53.214Z,62.47
2019-02-28T03:27:59.486Z,62.62
2019-02-28T03:30:27.737Z,65.95
2019-02-28T03:32:39.641Z,66.12
2019-02-28T03:34:36.070Z,65.80
2019-02-28T03:36:42.219Z,64.69
2019-02-28T03:38:49.829Z,65.41
2019-02-28T03:40:56.488Z,65.20
2019-02-28T03:43:06.756Z,64.07
2019-02-28T03:45:15.834Z,63.81
2019-02-28T03:47:23.948Z,64.69
2019-02-28T03:49:29.927Z,65.45
2019-02-28T03:51:36.191Z,64.71
2019-02-28T03:53:42.789Z,64.07
2019-02-28T03:55:49.094Z,64.06
2019-02-28T03:57:55.743Z,65.51
2019-02-28T04:00:02.223Z,65.01
2019-02-28T04:02:09.731Z,64.00
2019-02-28T04:04:15.884Z,64.27
2019-02-28T04:06:22.062Z,64.87
2019-02-28T04:08:30.368Z,64.14
2019-02-28T04:10:35.902Z,64.66
2019-02-28T04:12:45.628Z,65.62
2019-02-28T04:14:51.294Z,65.91
2019-02-28T04:16:57.560Z,64.42
2019-02-28T04:19:03.839Z,64.91
2019-02-28T04:21:11.888Z,64.28
2019-02-28T04:23:17.876Z,64.29
2019-02-28T04:25:24.532Z,64.19
2019-02-28T04:27:30.909Z,63.56
2019-02-28T04:29:37.168Z,63.30
2019-02-28T04:31:43.321Z,63.24
2019-02-28T04:33:49.461Z,63.05
2019-02-28T04:35:56.871Z,63.06
2019-02-28T04:38:03.437Z,63.59
2019-02-28T04:40:14.481Z,62.97
2019-02-28T04:42:20.663Z,63.39
2019-02-28T04:44:26.700Z,62.74
2019-02-28T04:46:32.782Z,63.79
2019-02-28T04:48:38.810Z,62.66
2019-02-28T04:50:45.097Z,62.57
2019-02-28T04:52:51.665Z,62.41
2019-02-28T04:54:59.399Z,62.56
2019-02-28T04:57:06.818Z,63.30
2019-02-28T04:59:12.899Z,62.89
2019-02-28T05:01:19.040Z,63.10
2019-02-28T05:03:27.938Z,63.37
2019-02-28T05:05:33.002Z,63.58
2019-02-28T05:07:39.169Z,63.08
2019-02-28T05:09:48.096Z,63.60
2019-02-28T05:11:53.333Z,63.79
2019-02-28T05:13:59.488Z,62.81
2019-02-28T05:16:05.655Z,62.87
2019-02-28T05:18:11.924Z,65.77
2019-02-28T05:20:18.171Z,62.81
2019-02-28T05:22:24.461Z,62.82
2019-02-28T05:24:32.310Z,62.86
2019-02-28T05:26:38.475Z,62.89
2019-02-28T05:28:44.725Z,63.23
2019-02-28T05:30:53.746Z,63.15
2019-02-28T05:32:58.779Z,64.14
2019-02-28T05:35:05.453Z,63.27
2019-02-28T05:37:12.526Z,63.48
2019-02-28T05:39:19.315Z,63.90
2019-02-28T05:41:25.476Z,64.30
2019-02-28T05:43:32.111Z,64.83
2019-02-28T05:45:39.009Z,65.20
2019-02-28T05:47:47.236Z,65.46
2019-02-28T05:49:53.867Z,65.81
2019-02-28T05:51:59.935Z,65.99
2019-02-28T05:54:06.087Z,66.22
2019-02-28T05:56:12.166Z,66.42
2019-02-28T05:58:18.864Z,65.99
2019-02-28T06:00:26.315Z,65.93
2019-02-28T06:02:32.496Z,66.46
2019-02-28T06:04:38.629Z,65.23
2019-02-28T06:06:44.796Z,65.00
2019-02-28T06:08:51.046Z,65.16
2019-02-28T06:11:00.616Z,66.11
2019-02-28T06:13:05.105Z,65.21
2019-02-28T06:15:14.454Z,66.01
2019-02-28T06:17:21.703Z,65.90
2019-02-28T06:19:28.288Z,65.11
2019-02-28T06:21:34.447Z,65.39
2019-02-28T06:23:41.005Z,65.74
2019-02-28T06:25:47.808Z,66.40
2019-02-28T06:27:53.935Z,66.05
2019-02-28T06:30:00.111Z,66.24
2019-02-28T06:32:06.566Z,66.24
2019-02-28T06:34:12.624Z,66.22
2019-02-28T06:36:18.877Z,66.00
2019-02-28T06:38:25.054Z,65.96
2019-02-28T06:40:33.163Z,65.97
2019-02-28T06:42:39.210Z,65.99
2019-02-28T06:44:45.360Z,66.21
2019-02-28T06:46:51.407Z,66.28
2019-02-28T06:49:06.121Z,66.42
2019-02-28T06:51:05.466Z,66.54
2019-02-28T06:53:11.734Z,66.50
2019-02-28T06:55:19.529Z,66.25
2019-02-28T06:57:26.887Z,66.18
2019-02-28T06:59:36.264Z,65.83
2019-02-28T07:01:41.494Z,65.22
2019-02-28T07:03:53.461Z,64.73
2019-02-28T07:05:57.526Z,64.65
2019-02-28T07:08:03.564Z,64.25
2019-02-28T07:10:18.923Z,63.89
2019-02-28T07:12:29.535Z,63.65
2019-02-28T07:14:32.993Z,63.42
2019-02-28T07:16:39.126Z,63.35
2019-02-28T07:18:45.286Z,63.32
2019-02-28T07:20:51.617Z,63.11
2019-02-28T07:22:57.707Z,63.06
2019-02-28T07:25:03.853Z,63.20
2019-02-28T07:27:10.017Z,63.02
2019-02-28T07:29:16.180Z,62.93
2019-02-28T07:31:24.665Z,62.55
2019-02-28T07:33:30.437Z,62.39
2019-02-28T07:35:36.958Z,61.93
2019-02-28T07:37:43.270Z,61.88
2019-02-28T07:39:49.422Z,61.90
2019-02-28T07:41:58.799Z,61.91
2019-02-28T07:44:03.487Z,61.97
2019-02-28T07:46:09.746Z,61.97
2019-02-28T07:48:16.106Z,62.15
2019-02-28T07:50:22.365Z,62.33
2019-02-28T07:52:32.379Z,62.45
2019-02-28T07:54:36.417Z,62.76
2019-02-28T07:56:43.173Z,62.32
2019-02-28T07:58:50.272Z,62.46
2019-02-28T08:00:56.521Z,62.39
2019-02-28T08:03:02.681Z,62.25
2019-02-28T08:05:13.041Z,62.51
2019-02-28T08:07:19.197Z,62.37
2019-02-28T08:09:28.718Z,62.03
2019-02-28T08:11:34.894Z,61.84
2019-02-28T08:13:41.167Z,61.42
2019-02-28T08:15:47.427Z,61.38
2019-02-28T08:17:53.686Z,60.98
2019-02-28T08:19:59.844Z,61.17
2019-02-28T08:22:05.977Z,61.14
2019-02-28T08:24:12.463Z,61.11
2019-02-28T08:26:18.931Z,60.98
2019-02-28T08:28:26.657Z,60.99
2019-02-28T08:30:35.438Z,61.08
2019-02-28T08:32:44.118Z,61.02
2019-02-28T08:34:50.741Z,60.91
2019-02-28T08:36:57.301Z,61.15
2019-02-28T08:39:06.045Z,60.60
2019-02-28T08:41:13.624Z,60.84
2019-02-28T08:43:27.174Z,60.95
2019-02-28T08:45:32.709Z,60.96
2019-02-28T08:47:36.477Z,60.71
2019-02-28T08:49:45.391Z,60.68
2019-02-28T08:51:50.646Z,60.46
2019-02-28T08:53:56.902Z,60.39
2019-02-28T08:56:03.159Z,60.61
2019-02-28T08:58:09.417Z,60.51
2019-02-28T09:00:21.228Z,60.56
2019-02-28T09:02:27.477Z,60.62
2019-02-28T09:04:41.034Z,60.84
2019-02-28T09:06:41.736Z,60.52
2019-02-28T09:08:48.009Z,60.73
2019-02-28T09:10:54.258Z,60.90
2019-02-28T09:13:00.517Z,60.98
2019-02-28T09:15:10.857Z,60.68
2019-02-28T09:17:18.655Z,60.77
2019-02-28T09:19:25.252Z,60.72
2019-02-28T09:21:35.339Z,60.88
2019-02-28T09:23:41.834Z,61.16
2019-02-28T09:25:48.002Z,61.46
2019-02-28T09:27:54.163Z,61.43
2019-02-28T09:30:00.414Z,61.57
2019-02-28T09:32:10.231Z,61.62
2019-02-28T09:34:16.823Z,61.58
2019-02-28T09:36:22.982Z,61.52
2019-02-28T09:38:29.143Z,61.39
2019-02-28T09:40:35.304Z,61.49
2019-02-28T09:42:41.571Z,61.25
2019-02-28T09:44:47.823Z,61.34
2019-02-28T09:46:54.086Z,61.47
2019-02-28T09:49:00.350Z,61.12
2019-02-28T09:51:06.505Z,61.06
2019-02-28T09:53:15.554Z,61.10
2019-02-28T09:55:21.097Z,60.72
2019-02-28T09:57:27.341Z,60.85
2019-02-28T09:59:37.336Z,60.75
2019-02-28T10:01:42.545Z,60.67
2019-02-28T10:03:48.883Z,60.47
2019-02-28T10:05:55.143Z,60.44
2019-02-28T10:08:02.855Z,60.34
2019-02-28T10:10:20.871Z,60.40
2019-02-28T10:12:27.150Z,60.23
2019-02-28T10:14:34.645Z,59.83
2019-02-28T10:16:40.862Z,59.89
2019-02-28T10:18:47.055Z,59.90
2019-02-28T10:20:53.391Z,59.79
2019-02-28T10:22:59.590Z,59.86
2019-02-28T10:25:08.184Z,59.86
2019-02-28T10:27:14.645Z,59.89
2019-02-28T10:29:21.093Z,59.40
2019-02-28T10:31:36.160Z,59.65
2019-02-28T10:33:35.057Z,59.84
2019-02-28T10:35:41.310Z,60.17
2019-02-28T10:37:48.190Z,59.76
2019-02-28T10:39:54.238Z,60.02
2019-02-28T10:42:01.473Z,59.41
2019-02-28T10:44:09.331Z,59.42
2019-02-28T10:46:16.950Z,59.94
2019-02-28T10:48:23.386Z,60.18
2019-02-28T10:50:38.310Z,59.43
2019-02-28T10:52:44.825Z,59.34
2019-02-28T10:54:51.071Z,58.85
2019-02-28T10:56:57.218Z,58.98
2019-02-28T10:59:03.681Z,59.02
2019-02-28T11:01:11.705Z,58.92
2019-02-28T11:03:19.399Z,59.02
2019-02-28T11:05:34.761Z,58.64
2019-02-28T11:07:41.015Z,58.89
2019-02-28T11:09:47.262Z,58.48
2019-02-28T11:11:54.541Z,58.31
2019-02-28T11:14:03.925Z,58.95
2019-02-28T11:16:10.454Z,57.90
2019-02-28T11:18:17.133Z,57.50
2019-02-28T11:20:26.171Z,57.16
2019-02-28T11:22:32.623Z,56.54
2019-02-28T11:24:38.886Z,56.65
2019-02-28T11:26:45.646Z,57.27
2019-02-28T11:28:51.946Z,57.39
2019-02-28T11:30:58.377Z,57.39
2019-02-28T11:33:05.793Z,55.97
2019-02-28T11:35:12.635Z,56.22
2019-02-28T11:37:18.915Z,56.69
2019-02-28T11:39:27.597Z,57.12
2019-02-28T11:41:33.074Z,57.40
2019-02-28T11:43:39.313Z,57.62
2019-02-28T11:45:48.154Z,57.92
2019-02-28T11:47:56.965Z,57.64
2019-02-28T11:50:04.640Z,57.82
2019-02-28T11:52:11.124Z,57.87
2019-02-28T11:54:17.794Z,57.78
2019-02-28T11:56:25.589Z,57.93
2019-02-28T11:58:31.934Z,58.64
2019-02-28T12:00:40.483Z,59.07
2019-02-28T12:02:53.379Z,59.15
2019-02-28T12:04:55.131Z,57.48
2019-02-28T12:07:01.785Z,57.50
2019-02-28T12:09:09.386Z,57.66
2019-02-28T12:11:15.660Z,57.82
2019-02-28T12:13:21.925Z,58.28
2019-02-28T12:15:38.227Z,57.74
2019-02-28T12:17:43.141Z,57.67
2019-02-28T12:19:50.644Z,57.73
2019-02-28T12:21:57.193Z,58.02
2019-02-28T12:24:03.370Z,57.93
2019-02-28T12:26:09.612Z,57.51
2019-02-28T12:28:15.766Z,57.24
2019-02-28T12:30:28.401Z,57.77
2019-02-28T12:32:34.641Z,57.96
2019-02-28T12:34:40.893Z,56.48
2019-02-28T12:36:49.418Z,56.75
2019-02-28T12:38:55.098Z,56.71
2019-02-28T12:41:01.323Z,56.73
2019-02-28T12:43:10.954Z,57.12
2019-02-28T12:45:25.118Z,56.67
2019-02-28T12:47:33.114Z,56.80
2019-02-28T12:49:40.748Z,56.64
2019-02-28T12:51:46.958Z,56.09
2019-02-28T12:53:56.246Z,56.35
2019-02-28T12:56:01.116Z,55.10
2019-02-28T12:58:07.476Z,55.06
2019-02-28T13:00:23.302Z,55.42
2019-02-28T13:02:28.485Z,55.30
2019-02-28T13:04:35.824Z,55.76
2019-02-28T13:06:42.551Z,56.18
2019-02-28T13:08:48.814Z,56.12
2019-02-28T13:10:54.977Z,55.13
2019-02-28T13:13:06.400Z,55.30
2019-02-28T13:15:13.874Z,55.46
2019-02-28T13:17:20.193Z,55.30
2019-02-28T13:19:26.676Z,54.64
2019-02-28T13:21:32.927Z,53.96
2019-02-28T13:23:39.107Z,53.85
2019-02-28T13:25:45.354Z,53.09
2019-02-28T13:27:51.626Z,53.80
2019-02-28T13:29:57.882Z,54.17
2019-02-28T13:32:04.261Z,54.34
2019-02-28T13:34:11.093Z,54.43
2019-02-28T13:36:18.502Z,54.20
2019-02-28T13:38:25.368Z,54.15
2019-02-28T13:40:31.625Z,54.34
2019-02-28T13:42:40.914Z,54.10
2019-02-28T13:44:45.686Z,53.49
2019-02-28T13:46:51.853Z,53.86
2019-02-28T13:48:58.121Z,54.19
2019-02-28T13:51:08.416Z,53.71
2019-02-28T13:53:18.276Z,53.63
2019-02-28T13:55:22.119Z,53.39
2019-02-28T13:57:28.360Z,53.55
2019-02-28T13:59:34.617Z,53.80
2019-02-28T14:01:40.808Z,54.12
2019-02-28T14:03:47.246Z,54.28
2019-02-28T14:05:53.613Z,53.04
2019-02-28T14:07:59.956Z,53.45
2019-02-28T14:10:11.505Z,53.51
2019-02-28T14:12:20.788Z,53.60
2019-02-28T14:14:25.804Z,53.06
2019-02-28T14:16:33.240Z,52.71
2019-02-28T14:18:39.365Z,53.14
2019-02-28T14:20:45.931Z,53.11
2019-02-28T14:22:52.598Z,53.48
2019-02-28T14:24:58.871Z,53.43
2019-02-28T14:27:05.222Z,53.43
2019-02-28T14:29:11.733Z,52.88
2019-02-28T14:31:18.267Z,53.12
2019-02-28T14:33:26.050Z,53.45
2019-02-28T14:35:35.542Z,53.13
2019-02-28T14:37:40.441Z,53.11
2019-02-28T14:39:47.820Z,52.71
2019-02-28T14:41:54.071Z,53.11
2019-02-28T14:44:00.324Z,53.62
2019-02-28T14:46:06.891Z,53.70
2019-02-28T14:48:13.253Z,53.71
2019-02-28T14:50:19.992Z,54.47
2019-02-28T14:52:26.389Z,54.11
2019-02-28T14:54:32.698Z,54.28
2019-02-28T14:56:39.579Z,54.65
2019-02-28T14:58:46.815Z,55.13
2019-02-28T15:00:53.082Z,55.70
2019-02-28T15:03:04.041Z,55.98
2019-02-28T15:05:16.625Z,56.33
2019-02-28T15:07:21.684Z,56.89
2019-02-28T15:09:28.134Z,56.22
2019-02-28T15:11:34.719Z,56.52
2019-02-28T15:13:40.969Z,56.82
2019-02-28T15:15:49.444Z,57.04
2019-02-28T15:17:55.468Z,57.08
2019-02-28T15:20:01.602Z,57.13
2019-02-28T15:22:09.812Z,57.51
2019-02-28T15:24:15.953Z,57.45
2019-02-28T15:26:22.322Z,57.86
2019-02-28T15:28:28.580Z,57.92
2019-02-28T15:30:40.282Z,58.37
2019-02-28T15:32:46.630Z,58.52
2019-02-28T15:34:53.607Z,58.91
2019-02-28T15:37:00.287Z,58.86
2019-02-28T15:39:09.680Z,59.06
2019-02-28T15:41:16.175Z,59.45
2019-02-28T15:43:22.757Z,59.69
2019-02-28T15:45:29.012Z,59.94
2019-02-28T15:47:35.261Z,60.22
2019-02-28T15:49:42.588Z,60.55
2019-02-28T15:51:49.101Z,60.66
2019-02-28T15:53:55.372Z,60.97
2019-02-28T15:56:01.855Z,60.98
2019-02-28T15:58:09.630Z,61.08
2019-02-28T16:00:33.921Z,60.97
2019-02-28T16:02:43.315Z,61.53
2019-02-28T16:04:49.640Z,61.78
2019-02-28T16:06:57.939Z,62.05
2019-02-28T16:09:06.122Z,62.09
2019-02-28T16:11:17.279Z,62.79
2019-02-28T16:13:26.596Z,63.03
2019-02-28T16:15:33.299Z,63.27
2019-02-28T16:17:42.351Z,63.33
2019-02-28T16:19:48.694Z,63.77
2019-02-28T16:21:55.267Z,63.79
2019-02-28T16:24:05.069Z,64.03
2019-02-28T16:26:10.362Z,63.97
2019-02-28T16:28:17.210Z,63.95
2019-02-28T16:30:23.691Z,63.85
2019-02-28T16:32:30.080Z,63.98
2019-02-28T16:34:38.796Z,64.20
2019-02-28T16:36:45.201Z,64.26
2019-02-28T16:38:51.692Z,64.76
2019-02-28T16:41:00.800Z,65.09
2019-02-28T16:43:06.271Z,65.45
2019-02-28T16:45:19.691Z,65.71
2019-02-28T16:47:27.312Z,65.75
2019-02-28T16:49:34.039Z,65.74
2019-02-28T16:51:40.748Z,65.96
2019-02-28T16:53:48.008Z,66.21
2019-02-28T16:55:55.307Z,66.54
2019-02-28T16:58:06.249Z,66.54
2019-02-28T17:00:16.144Z,66.90
2019-02-28T17:02:26.425Z,67.12
2019-02-28T17:04:33.862Z,67.03
2019-02-28T17:06:40.431Z,67.40
2019-02-28T17:08:48.437Z,67.74
2019-02-28T17:10:54.891Z,67.58
2019-02-28T17:13:04.204Z,68.05
2019-02-28T17:15:14.789Z,67.96
2019-02-28T17:17:23.023Z,68.26
2019-02-28T17:19:31.679Z,68.40
2019-02-28T17:21:37.683Z,68.40
2019-02-28T17:23:45.244Z,68.50
2019-02-28T17:25:56.525Z,68.71
2019-02-28T17:28:20.919Z,68.94
2019-02-28T17:30:32.959Z,69.02
2019-02-28T17:32:41.841Z,69.58
2019-02-28T17:34:48.531Z,69.77
2019-02-28T17:36:56.438Z,70.01
2019-02-28T17:39:05.460Z,70.46
2019-02-28T17:41:13.442Z,70.53
2019-02-28T17:43:24.123Z,70.76
2019-02-28T17:45:29.444Z,70.91
2019-02-28T17:47:46.802Z,70.93
2019-02-28T17:50:27.585Z,71.18
2019-02-28T17:53:10.219Z,71.20
2019-02-28T17:55:35.974Z,71.31
2019-02-28T17:57:55.930Z,71.23
2019-02-28T18:00:21.964Z,71.35
2019-02-28T18:02:55.403Z,71.67
2019-02-28T18:05:36.497Z,71.75
2019-02-28T18:08:07.494Z,71.97
2019-02-28T18:10:38.833Z,71.99
2019-02-28T18:13:20.078Z,71.99
2019-02-28T18:15:33.037Z,72.23
2019-02-28T18:18:24.793Z,72.23
2019-02-28T18:21:04.691Z,72.47
2019-02-28T18:23:47.002Z,72.68
2019-02-28T18:26:19.065Z,73.08
2019-02-28T18:28:35.976Z,73.54
2019-02-28T18:31:12.134Z,73.64
2019-02-28T18:33:19.511Z,73.87
2019-02-28T18:35:29.169Z,74.10
2019-02-28T18:37:35.326Z,74.22
2019-02-28T18:39:44.608Z,74.39
2019-02-28T18:41:52.885Z,74.58
2019-02-28T18:44:00.087Z,74.97
2019-02-28T18:46:08.207Z,75.10
2019-02-28T18:48:17.851Z,75.37
2019-02-28T18:50:24.299Z,75.56
2019-02-28T18:52:31.065Z,75.78
2019-02-28T18:54:39.364Z,75.82
2019-02-28T18:56:45.920Z,75.88
2019-02-28T18:58:53.765Z,76.21
2019-02-28T19:01:00.785Z,76.33
2019-02-28T19:03:08.045Z,76.37
2019-02-28T19:05:14.772Z,76.61
2019-02-28T19:07:21.625Z,76.52
2019-02-28T19:09:28.245Z,76.72
2019-02-28T19:11:35.086Z,77.32
2019-02-28T19:13:42.385Z,77.41
2019-02-28T19:15:49.005Z,77.67
2019-02-28T19:17:55.985Z,77.70
2019-02-28T19:20:02.591Z,77.74
2019-02-28T19:22:10.810Z,78.08
2019-02-28T19:24:17.356Z,78.06
2019-02-28T19:26:24.110Z,78.40
2019-02-28T19:28:30.707Z,78.79
2019-02-28T19:30:39.077Z,78.44
2019-02-28T19:32:45.660Z,78.98
2019-02-28T19:34:53.771Z,79.02
2019-02-28T19:37:02.777Z,79.15
2019-02-28T19:39:10.551Z,79.50
2019-02-28T19:41:17.340Z,79.71
2019-02-28T19:43:25.554Z,79.95
2019-02-28T19:45:36.510Z,80.47
2019-02-28T19:47:47.598Z,80.41
2019-02-28T19:49:54.353Z,80.89
2019-02-28T19:52:02.263Z,80.91
2019-02-28T19:54:09.020Z,81.04
2019-02-28T19:56:16.390Z,81.38
2019-02-28T19:58:22.855Z,81.66
2019-02-28T20:00:29.372Z,81.72
2019-02-28T20:02:36.503Z,81.69
2019-02-28T20:04:44.190Z,81.95
2019-02-28T20:06:50.622Z,81.87
2019-02-28T20:08:57.400Z,81.98
2019-02-28T20:11:04.118Z,82.20
2019-02-28T20:13:10.691Z,82.29
2019-02-28T20:15:20.773Z,82.32
2019-02-28T20:17:28.253Z,82.18
2019-02-28T20:19:34.881Z,82.19
2019-02-28T20:21:41.705Z,82.23
2019-02-28T20:23:49.632Z,82.13
2019-02-28T20:25:56.287Z,82.22
2019-02-28T20:28:02.811Z,82.32
2019-02-28T20:30:14.340Z,82.40
2019-02-28T20:32:21.325Z,82.50
2019-02-28T20:34:29.200Z,82.56
2019-02-28T20:36:35.737Z,82.81
2019-02-28T20:38:45.059Z,82.92
2019-02-28T20:40:53.063Z,82.96
2019-02-28T20:42:59.534Z,82.95
2019-02-28T20:45:11.193Z,82.97
2019-02-28T20:47:19.355Z,83.17
2019-02-28T20:49:26.103Z,83.07
2019-02-28T20:51:32.871Z,83.16
2019-02-28T20:53:39.651Z,83.28
2019-02-28T20:55:48.859Z,83.25
2019-02-28T20:57:57.468Z,83.30
2019-02-28T21:00:07.965Z,83.50
2019-02-28T21:02:14.598Z,83.53
2019-02-28T21:04:21.378Z,83.60
2019-02-28T21:06:28.213Z,83.51
2019-02-28T21:08:34.603Z,83.50
2019-02-28T21:10:41.397Z,83.81
2019-02-28T21:12:49.403Z,83.91
2019-02-28T21:14:55.941Z,84.12
2019-02-28T21:17:02.239Z,84.12
2019-02-28T21:19:09.079Z,84.14
2019-02-28T21:21:16.982Z,84.35
2019-02-28T21:23:24.069Z,84.66
2019-02-28T21:25:32.910Z,84.99
2019-02-28T21:27:39.470Z,84.96
2019-02-28T21:29:47.363Z,85.16
2019-02-28T21:31:53.825Z,84.86
2019-02-28T21:34:00.386Z,85.19
2019-02-28T21:36:07.127Z,85.47
2019-02-28T21:38:14.074Z,85.38
2019-02-28T21:40:22.541Z,85.55
2019-02-28T21:42:28.934Z,85.67
2019-02-28T21:44:35.889Z,85.84
2019-02-28T21:46:42.243Z,85.76
2019-02-28T21:48:48.706Z,85.85
2019-02-28T21:50:54.969Z,85.89
2019-02-28T21:53:01.639Z,86.35
2019-02-28T21:55:12.056Z,86.10
2019-02-28T21:57:18.348Z,86.04
2019-02-28T21:59:24.505Z,86.05
2019-02-28T22:01:30.659Z,86.22
2019-02-28T22:03:36.923Z,86.48
2019-02-28T22:05:43.393Z,86.58
2019-02-28T22:07:49.556Z,86.88
2019-02-28T22:09:55.933Z,87.02
2019-02-28T22:12:02.188Z,87.06
2019-02-28T22:14:08.445Z,87.17
2019-02-28T22:16:14.996Z,87.22
2019-02-28T22:18:21.165Z,87.11
2019-02-28T22:20:27.417Z,87.17
2019-02-28T22:22:33.689Z,87.34
2019-02-28T22:24:39.929Z,87.38
2019-02-28T22:26:46.099Z,87.21
2019-02-28T22:28:52.448Z,87.15
2019-02-28T22:31:00.268Z,87.39
2019-02-28T22:33:24.374Z,87.25
2019-02-28T22:35:32.129Z,87.34
2019-02-28T22:37:40.434Z,87.35
2019-02-28T22:39:46.588Z,87.37
2019-02-28T22:41:52.746Z,87.50
2019-02-28T22:43:58.918Z,87.54
2019-02-28T22:46:05.071Z,87.54
2019-02-28T22:48:11.121Z,87.76
2019-02-28T22:50:17.283Z,87.73
2019-02-28T22:52:24.818Z,87.85
2019-02-28T22:54:31.133Z,87.87
2019-02-28T22:56:37.298Z,87.71
2019-02-28T22:58:43.552Z,87.92
2019-02-28T23:01:08.137Z,87.98
2019-02-28T23:03:15.828Z,88.15
2019-02-28T23:05:21.989Z,88.19
2019-02-28T23:07:28.157Z,88.08
2019-02-28T23:09:34.305Z,87.97
2019-02-28T23:11:40.565Z,88.21
2019-02-28T23:13:46.707Z,88.19
2019-02-28T23:15:52.981Z,88.33
2019-02-28T23:17:59.142Z,88.54
2019-02-28T23:20:08.174Z,88.68
2019-02-28T23:22:14.551Z,88.64
2019-02-28T23:24:20.992Z,88.68
2019-02-28T23:26:27.695Z,88.86
2019-02-28T23:28:38.220Z,88.82
2019-02-28T23:31:17.050Z,88.78
2019-02-28T23:33:23.715Z,88.92
2019-02-28T23:35:34.006Z,88.87
2019-02-28T23:37:40.364Z,88.94
2019-02-28T23:39:46.592Z,89.14
2019-02-28T23:41:52.855Z,89.18
2019-02-28T23:43:59.113Z,89.27
2019-02-28T23:46:05.584Z,89.33
2019-02-28T23:48:11.938Z,89.63
2019-02-28T23:50:18.116Z,89.71
2019-02-28T23:52:24.344Z,89.74
2019-02-28T23:54:30.514Z,89.87
2019-02-28T23:56:36.687Z,89.89
2019-02-28T23:58:42.761Z,89.98
